Campanya meteocatpedra

Dades EMA Sant Cugat del Vallès - CAR

?
?
Resum diari 21:00 TU
Dades diàries de l'estació meteorològica
Temperatura mitjana 25.1 °C
Temperatura màxima 32.7 °C 13:19 TU
Temperatura mínima 20.8 °C 5:02 TU
Humitat relativa mitjana 70%
Precipitació acumulada 0.1 mm
Ratxa màxima del vent (10 m) 21.6 km/h - 140º 16:50 TU
Irradiació solar global 21.0 MJ/m2

El tram horari està expressat en Temps Universal (TU). Cal sumar una hora en horari d'hivern i dues en horari d'estiu per passar a l'hora oficial.

Sant Cugat del Vallès - CAR

Metadades estació meteorol´gica
Municipi Sant Cugat del Vallès
Comarca Vallès Occidental
Altitud 158 m
Data alta 08.08.2013
Estat actual Operativa
Dades de període
Període
TU
TM
°C
TX
°C
TN
°C
HRM
%
PPT
mm
VVM (10 m)
km/h
DVM (10 m)
graus
VVX (10 m)
km/h
RS
W/m2
00:00 - 00:30 22.0 22.0 21.9 95 0.0 2.5 73 7.6 0
00:30 - 01:00 22.1 22.1 22.0 94 0.0 2.5 63 6.1 0
01:00 - 01:30 22.0 22.1 21.9 91 0.0 2.5 74 7.6 0
01:30 - 02:00 22.2 22.3 22.1 88 0.0 2.9 82 6.8 0
02:00 - 02:30 22.4 22.4 22.3 87 0.0 3.6 96 9.0 0
02:30 - 03:00 22.0 22.4 21.6 88 0.0 1.8 84 9.0 0
03:00 - 03:30 21.5 21.6 21.4 91 0.0 2.5 64 8.3 0
03:30 - 04:00 21.4 21.4 21.2 91 0.0 2.2 79 6.8 0
04:00 - 04:30 21.1 21.2 20.9 91 0.0 2.2 82 6.5 0
04:30 - 05:00 20.9 21.0 20.8 91 0.0 2.2 77 7.2 0
05:00 - 05:30 20.8 20.9 20.8 91 0.0 1.1 98 4.0 11
05:30 - 06:00 21.0 21.2 20.9 90 0.0 0.4 106 2.5 37
06:00 - 06:30 21.5 21.8 21.2 88 0.0 0.0 106 0.4 91
06:30 - 07:00 22.2 22.7 21.8 85 0.0 1.1 175 4.3 203
07:00 - 07:30 23.5 24.2 22.8 80 0.0 2.2 134 6.1 291
07:30 - 08:00 24.9 25.6 24.1 73 0.0 1.8 89 7.2 354
08:00 - 08:30 25.1 25.9 24.4 72 0.0 2.9 88 10.1 341
08:30 - 09:00 25.7 26.1 25.3 68 0.0 2.9 79 7.9 335
09:00 - 09:30 25.5 25.7 25.1 69 0.1 2.5 30 6.8 267
09:30 - 10:00 26.1 26.6 25.5 67 0.0 2.5 356 5.8 463
10:00 - 10:30 26.8 28.3 25.9 63 0.0 2.2 277 7.6 505
10:30 - 11:00 28.0 29.2 26.9 58 0.0 3.6 254 10.4 665
11:00 - 11:30 28.8 29.9 27.6 55 0.0 4.0 264 9.0 810
11:30 - 12:00 30.2 31.2 29.0 49 0.0 5.0 138 15.1 750
12:00 - 12:30 31.0 32.0 30.0 48 0.0 6.8 110 18.7 841
12:30 - 13:00 30.9 31.5 30.1 49 0.0 9.0 120 21.2 822
13:00 - 13:30 31.3 32.7 30.7 47 0.0 7.6 113 17.6 789
13:30 - 14:00 31.6 32.4 30.8 47 0.0 7.6 106 16.9 742
14:00 - 14:30 31.1 31.8 30.1 49 0.0 7.9 131 16.6 697
14:30 - 15:00 30.7 31.3 30.0 49 0.0 9.0 143 16.9 635
15:00 - 15:30 29.7 30.5 28.8 52 0.0 9.0 133 19.8 492
15:30 - 16:00 28.7 29.1 28.2 55 0.0 8.6 116 20.2 475
16:00 - 16:30 27.8 28.4 26.8 58 0.0 7.9 115 16.9 331
16:30 - 17:00 26.4 27.2 25.8 62 0.0 8.6 124 21.6 280
17:00 - 17:30 26.2 26.9 25.6 62 0.0 9.0 125 19.4 285
17:30 - 18:00 25.5 25.9 25.1 64 0.0 7.2 133 20.2 132
18:00 - 18:30 24.8 25.0 24.5 62 0.0 6.1 125 18.4 46
18:30 - 19:00 24.2 24.4 23.9 60 0.0 4.7 122 14.0 5
19:00 - 19:30 23.6 23.9 23.4 63 0.0 2.9 111 10.4 0
19:30 - 20:00 23.1 23.4 22.8 65 0.0 1.8 77 5.4 0
20:00 - 20:30 22.6 22.7 22.4 65 0.0 1.1 82 3.6 0
20:30 - 21:00 22.3 22.5 22.1 65 0.0 0.4 88 2.9 0
21:00 - 21:30 21.9 22.2 21.7 68 0.0 1.4 354 2.9 0

Les dades en taronja només han passat un control de qualitat automàtic. Resta pendent la seva validació definitiva.